Time;durP1;ratioP1;P1;durP2;ratioP2;P2;SDS_P1;SDS_P2;PMS_P1;PMS_P2;Temp;Humidity;BMP_temperature;BMP_pressure;BME280_temperature;BME280_humidity;BME280_pressure;Samples;Min_cycle;Max_cycle;Signal;HPM_P1;HPM_P2
2023/08/26 00:01:31;;;;;;;7.30;5.40;;;;;;;29.01;73.62;100459.83;108004;1287;22099;-83
2023/08/26 00:03:56;;;;;;;6.60;5.80;;;;;;;28.99;73.67;100459.48;107951;1284;22229;-59
2023/08/26 00:06:22;;;;;;;8.70;5.70;;;;;;;28.96;73.64;100457.77;107964;1290;22004;-80
2023/08/26 00:08:50;;;;;;;8.60;6.20;;;;;;;28.92;73.66;100456.13;107933;1284;21967;-60
2023/08/26 00:11:15;;;;;;;9.00;5.50;;;;;;;28.89;73.84;100452.27;107919;1290;22004;-60
2023/08/26 00:13:41;;;;;;;7.90;5.80;;;;;;;28.85;74.49;100447.07;107853;1289;21989;-59
2023/08/26 00:16:06;;;;;;;7.90;6.30;;;;;;;28.77;75.08;100447.52;107930;1290;21992;-81
2023/08/26 00:18:32;;;;;;;6.70;5.90;;;;;;;28.73;74.52;100451.45;107924;1284;21995;-59
2023/08/26 00:20:58;;;;;;;9.50;6.30;;;;;;;28.71;74.89;100452.34;107884;1290;22489;-60
2023/08/26 00:23:24;;;;;;;7.80;5.80;;;;;;;28.70;75.31;100453.38;107825;1287;22025;-80
2023/08/26 00:25:49;;;;;;;5.70;5.10;;;;;;;28.70;75.28;100454.12;107782;1291;22037;-59
2023/08/26 00:28:15;;;;;;;6.80;5.10;;;;;;;28.69;75.18;100458.17;107796;1291;21985;-59
2023/08/26 00:30:41;;;;;;;7.00;5.30;;;;;;;28.70;75.14;100462.90;107764;1290;21995;-80
2023/08/26 00:33:07;;;;;;;8.00;5.70;;;;;;;28.72;74.78;100461.69;107926;1290;22021;-79
2023/08/26 00:35:33;;;;;;;7.50;5.50;;;;;;;28.73;75.10;100468.58;107917;1290;21989;-78
2023/08/26 00:37:58;;;;;;;7.60;6.00;;;;;;;28.74;75.14;100471.73;107971;1290;22048;-79
2023/08/26 00:40:24;;;;;;;6.80;6.10;;;;;;;28.72;74.86;100471.26;108003;1290;21997;-68
2023/08/26 00:42:53;;;;;;;7.90;5.70;;;;;;;28.69;75.20;100467.18;107869;1287;21959;-59
2023/08/26 00:45:18;;;;;;;8.30;5.70;;;;;;;28.65;75.04;100467.48;107816;1290;21992;-60
2023/08/26 00:47:44;;;;;;;7.80;5.70;;;;;;;28.65;75.27;100468.06;107814;1287;21997;-59
2023/08/26 00:50:10;;;;;;;7.30;6.20;;;;;;;28.66;75.39;100470.49;107939;1290;21984;-59
2023/08/26 00:52:35;;;;;;;9.80;5.80;;;;;;;28.66;75.49;100471.06;107955;1290;21989;-59
2023/08/26 00:55:01;;;;;;;10.60;6.20;;;;;;;28.63;75.28;100464.60;107815;1287;21986;-77
2023/08/26 00:57:27;;;;;;;5.80;5.10;;;;;;;28.62;75.24;100466.51;107890;1290;22048;-59
2023/08/26 00:59:52;;;;;;;6.30;5.10;;;;;;;28.59;75.33;100463.65;107826;1290;22105;-59
2023/08/26 01:02:18;;;;;;;9.70;4.90;;;;;;;28.58;75.41;100466.67;107879;1288;21995;-60
2023/08/26 01:04:44;;;;;;;7.20;5.30;;;;;;;28.57;75.50;100463.48;107836;1291;21990;-59
2023/08/26 01:07:09;;;;;;;5.80;4.80;;;;;;;28.57;75.46;100458.64;107813;1287;21989;-59
2023/08/26 01:09:37;;;;;;;7.90;4.90;;;;;;;28.58;75.29;100459.59;107862;1290;21997;-77
2023/08/26 01:12:22;;;;;;;6.40;5.40;;;;;;;28.60;75.32;100461.96;107783;1290;24339;-77
2023/08/26 01:15:00;;;;;;;8.70;4.90;;;;;;;28.62;75.30;100459.80;107807;1290;22003;-78
2023/08/26 01:17:26;;;;;;;7.10;4.70;;;;;;;28.62;75.46;100459.61;107948;1290;21990;-59
2023/08/26 01:19:53;;;;;;;7.10;4.80;;;;;;;28.60;75.37;100461.08;107756;1290;22005;-77
2023/08/26 01:22:19;;;;;;;6.30;4.70;;;;;;;28.58;75.32;100462.15;108001;1286;21995;-60
2023/08/26 01:24:44;;;;;;;5.90;4.90;;;;;;;28.58;75.38;100463.75;107806;1290;22033;-76
2023/08/26 01:27:10;;;;;;;9.60;5.10;;;;;;;28.59;75.79;100466.56;107954;1284;22027;-76
2023/08/26 01:29:35;;;;;;;5.70;4.10;;;;;;;28.57;75.77;100466.59;107932;1284;21992;-75
2023/08/26 01:32:27;;;;;;;6.40;4.20;;;;;;;28.54;75.74;100465.01;107980;1290;21987;-75
2023/08/26 01:34:56;;;;;;;5.40;4.00;;;;;;;28.51;76.03;100460.20;107942;1290;22007;-75
2023/08/26 01:37:22;;;;;;;6.00;4.10;;;;;;;28.50;76.19;100456.34;108037;1287;22170;-59
2023/08/26 01:39:48;;;;;;;5.10;4.20;;;;;;;28.49;76.17;100455.69;108001;1284;21990;-60
2023/08/26 01:42:17;;;;;;;8.40;4.60;;;;;;;28.49;76.58;100458.90;108008;1287;22028;-59
2023/08/26 01:44:43;;;;;;;8.20;4.60;;;;;;;28.48;76.73;100459.77;108008;1290;22251;-75
2023/08/26 01:47:09;;;;;;;8.70;5.20;;;;;;;28.47;76.70;100460.02;107873;1290;21987;-59
2023/08/26 01:49:34;;;;;;;6.70;4.30;;;;;;;28.48;76.66;100457.20;107790;1290;21993;-74
2023/08/26 01:52:00;;;;;;;8.50;4.80;;;;;;;28.51;77.40;100456.27;107914;1290;21999;-75
2023/08/26 01:54:25;;;;;;;8.30;4.20;;;;;;;28.50;77.00;100458.45;107985;1284;21995;-74
2023/08/26 01:56:51;;;;;;;7.00;4.20;;;;;;;28.50;77.43;100458.09;107943;1291;22459;-75
2023/08/26 01:59:17;;;;;;;8.60;4.60;;;;;;;28.52;77.22;100457.84;107796;1290;21999;-74
2023/08/26 02:01:42;;;;;;;6.50;4.50;;;;;;;28.53;77.31;100458.82;107832;1287;22170;-59
2023/08/26 02:04:08;;;;;;;7.70;4.80;;;;;;;28.53;77.04;100456.81;107818;1283;21995;-74
2023/08/26 02:06:33;;;;;;;8.30;4.90;;;;;;;28.54;77.68;100460.20;107811;1291;21995;-59
2023/08/26 02:08:59;;;;;;;5.50;4.30;;;;;;;28.50;77.26;100458.33;107846;1290;22022;-61
2023/08/26 02:11:24;;;;;;;5.80;4.40;;;;;;;28.46;77.12;100459.90;107896;1280;21991;-59
2023/08/26 02:13:50;;;;;;;7.00;4.50;;;;;;;28.45;77.26;100465.96;107840;1290;21988;-59
2023/08/26 02:16:15;;;;;;;7.10;4.50;;;;;;;28.45;76.81;100464.19;107842;1285;21992;-60
2023/08/26 02:18:41;;;;;;;6.60;4.30;;;;;;;28.43;77.12;100463.27;107840;1290;22155;-59
2023/08/26 02:21:08;;;;;;;6.60;4.80;;;;;;;28.36;76.93;100468.16;107864;1284;21989;-59
2023/08/26 02:23:34;;;;;;;9.80;4.70;;;;;;;28.30;76.82;100468.27;107939;1290;21962;-60
2023/08/26 02:25:59;;;;;;;11.60;4.90;;;;;;;28.31;76.61;100466.63;107946;1290;22028;-69
2023/08/26 02:28:25;;;;;;;7.60;5.10;;;;;;;28.33;76.48;100466.64;107967;1290;21992;-59
2023/08/26 02:30:50;;;;;;;8.90;5.10;;;;;;;28.33;76.28;100471.01;107955;1290;22001;-59
2023/08/26 02:33:16;;;;;;;6.00;5.20;;;;;;;28.32;76.24;100471.80;107915;1290;21991;-59
2023/08/26 02:35:46;;;;;;;5.70;4.90;;;;;;;28.33;76.02;100470.20;107942;1290;22453;-59
2023/08/26 02:38:13;;;;;;;6.60;4.70;;;;;;;28.39;75.38;100470.85;107923;1289;21966;-68
2023/08/26 02:40:38;;;;;;;6.40;5.20;;;;;;;28.39;75.41;100469.59;107973;1287;21992;-67
2023/08/26 02:43:04;;;;;;;6.40;5.60;;;;;;;28.39;75.57;100469.94;107962;1290;21997;-59
2023/08/26 02:45:30;;;;;;;8.30;5.40;;;;;;;28.39;75.74;100470.50;107927;1288;22050;-59
2023/08/26 02:47:57;;;;;;;8.70;5.90;;;;;;;28.39;75.82;100473.20;107939;1288;21989;-68
2023/08/26 02:50:24;;;;;;;8.30;6.30;;;;;;;28.41;76.76;100474.13;107962;1290;22000;-68
2023/08/26 02:52:50;;;;;;;9.70;6.40;;;;;;;28.43;77.43;100471.23;107980;1290;21992;-59
2023/08/26 02:55:16;;;;;;;7.30;6.60;;;;;;;28.43;77.51;100469.20;107949;1287;21994;-60
2023/08/26 02:57:42;;;;;;;7.80;6.70;;;;;;;28.43;77.90;100467.80;107977;1290;21992;-59
2023/08/26 03:00:09;;;;;;;8.10;7.30;;;;;;;28.37;77.69;100471.52;108008;1284;22026;-69
2023/08/26 03:02:35;;;;;;;10.00;7.40;;;;;;;28.31;77.72;100469.67;107946;1290;23812;-59
2023/08/26 03:05:02;;;;;;;8.40;6.70;;;;;;;28.26;78.24;100467.06;107941;1290;21979;-60
2023/08/26 03:07:27;;;;;;;7.60;6.80;;;;;;;28.23;77.81;100463.94;108026;1284;21992;-60
2023/08/26 03:09:53;;;;;;;9.00;7.10;;;;;;;28.20;78.04;100466.65;107987;1288;22011;-59
2023/08/26 03:12:19;;;;;;;8.80;7.10;;;;;;;28.18;78.35;100464.65;107949;1291;22000;-68
2023/08/26 03:14:44;;;;;;;7.90;7.00;;;;;;;28.17;78.31;100459.33;107883;1291;22005;-59
2023/08/26 03:17:10;;;;;;;8.20;7.30;;;;;;;28.18;79.05;100456.38;107821;1291;22001;-67
2023/08/26 03:19:35;;;;;;;9.30;8.20;;;;;;;28.17;79.45;100456.09;107822;1291;22031;-68
2023/08/26 03:22:01;;;;;;;9.10;8.00;;;;;;;28.17;79.43;100462.04;107873;1290;22160;-59
2023/08/26 03:24:27;;;;;;;10.90;8.50;;;;;;;28.21;79.55;100464.41;107822;1287;21997;-59
2023/08/26 03:26:52;;;;;;;10.00;9.00;;;;;;;28.25;80.97;100466.23;107886;1291;21997;-59
2023/08/26 03:29:18;;;;;;;9.60;7.70;;;;;;;28.26;80.82;100465.60;107904;1291;22177;-68
2023/08/26 03:31:44;;;;;;;8.90;8.00;;;;;;;28.29;79.75;100464.62;107903;1281;21994;-59
2023/08/26 03:34:09;;;;;;;9.10;7.00;;;;;;;28.34;79.34;100470.47;107836;1289;21984;-64
2023/08/26 03:36:35;;;;;;;9.00;6.80;;;;;;;28.37;79.02;100471.86;107831;1291;22086;-59
2023/08/26 03:39:01;;;;;;;12.70;7.50;;;;;;;28.38;78.90;100473.77;107843;1287;21996;-59
2023/08/26 03:41:26;;;;;;;9.80;5.80;;;;;;;28.44;78.46;100472.55;107817;1291;21993;-59
2023/08/26 03:43:52;;;;;;;8.90;5.90;;;;;;;28.50;78.45;100474.02;107831;1287;21990;-59
2023/08/26 03:46:17;;;;;;;8.20;5.90;;;;;;;28.53;78.42;100478.64;107809;1291;21990;-59
2023/08/26 03:48:43;;;;;;;8.70;5.70;;;;;;;28.57;78.18;100483.39;107884;1283;22002;-73
2023/08/26 03:51:09;;;;;;;13.10;6.00;;;;;;;28.60;78.18;100478.98;107837;1291;22026;-59
2023/08/26 03:53:35;;;;;;;9.30;5.90;;;;;;;28.66;78.13;100476.63;107902;1289;21990;-59
2023/08/26 03:56:01;;;;;;;10.60;6.90;;;;;;;28.74;78.43;100467.48;107813;1291;21990;-59
2023/08/26 03:58:27;;;;;;;10.20;6.30;;;;;;;28.79;78.59;100467.91;107831;1291;21994;-59
2023/08/26 04:01:03;;;;;;;6.80;6.10;;;;;;;28.86;78.88;100465.56;107891;1284;22032;-73
2023/08/26 04:03:29;;;;;;;9.70;6.40;;;;;;;28.91;78.85;100465.62;107648;1291;21998;-59
2023/08/26 04:06:02;;;;;;;7.00;6.20;;;;;;;28.97;79.76;100466.34;107807;1282;22000;-59
2023/08/26 04:08:29;;;;;;;12.30;6.30;;;;;;;28.99;79.66;100460.38;107854;1287;23773;-66
2023/08/26 04:10:58;;;;;;;8.20;5.60;;;;;;;29.02;79.31;100458.33;108001;1290;21992;-59
2023/08/26 04:13:25;;;;;;;7.20;5.80;;;;;;;29.06;79.73;100454.93;107988;1290;21992;-74
2023/08/26 04:15:55;;;;;;;8.30;5.90;;;;;;;29.11;79.77;100455.52;108089;1284;21995;-60
2023/08/26 04:18:22;;;;;;;12.00;6.10;;;;;;;29.16;79.96;100461.44;107965;1290;22063;-74
2023/08/26 04:20:48;;;;;;;7.40;5.70;;;;;;;29.18;80.08;100461.62;107970;1290;21988;-60
2023/08/26 04:23:14;;;;;;;6.80;5.60;;;;;;;29.20;79.86;100467.94;108023;1287;22002;-59
2023/08/26 04:25:40;;;;;;;7.80;5.80;;;;;;;29.24;79.82;100469.02;107962;1290;21999;-76
2023/08/26 04:28:06;;;;;;;11.40;8.40;;;;;;;29.32;80.25;100468.32;107999;1290;22289;-74
2023/08/26 04:30:31;;;;;;;19.10;15.20;;;;;;;29.45;80.04;100469.91;107959;1281;21992;-58
2023/08/26 04:32:57;;;;;;;16.70;12.60;;;;;;;29.47;79.83;100470.98;107963;1290;21962;-59
2023/08/26 04:35:23;;;;;;;13.80;9.00;;;;;;;29.50;79.90;100464.55;108034;1290;21997;-78
2023/08/26 04:37:49;;;;;;;10.60;8.00;;;;;;;29.59;80.14;100468.21;107922;1290;21996;-59
2023/08/26 04:40:15;;;;;;;8.80;6.90;;;;;;;29.64;80.27;100465.57;107979;1290;22001;-59
2023/08/26 04:42:41;;;;;;;8.70;7.20;;;;;;;29.68;80.80;100463.77;107967;1290;22022;-59
2023/08/26 04:45:07;;;;;;;8.00;6.10;;;;;;;29.64;81.22;100465.85;107982;1290;21987;-60
2023/08/26 04:47:33;;;;;;;10.70;6.00;;;;;;;29.65;81.47;100466.96;108070;1288;23657;-84
2023/08/26 04:49:58;;;;;;;7.90;5.90;;;;;;;29.72;81.25;100463.84;107950;1284;21989;-81
2023/08/26 04:52:24;;;;;;;10.70;7.80;;;;;;;29.76;81.33;100464.73;107995;1290;22052;-79
2023/08/26 04:54:50;;;;;;;11.20;9.10;;;;;;;29.80;82.19;100464.32;107933;1290;23444;-59
2023/08/26 04:57:17;;;;;;;11.30;8.60;;;;;;;29.85;81.94;100470.73;107976;1289;22248;-79
2023/08/26 04:59:42;;;;;;;9.00;8.10;;;;;;;29.91;81.86;100468.64;107996;1287;22011;-77
2023/08/26 05:02:08;;;;;;;7.50;6.60;;;;;;;29.97;81.85;100469.11;108008;1290;22340;-78
2023/08/26 05:04:35;;;;;;;8.40;6.30;;;;;;;30.05;83.17;100469.51;107972;1284;22002;-59
2023/08/26 05:07:01;;;;;;;8.60;6.00;;;;;;;30.09;83.76;100472.70;108061;1290;21989;-79
2023/08/26 05:09:28;;;;;;;9.00;5.70;;;;;;;30.15;84.25;100470.02;107954;1290;22008;-79
2023/08/26 05:11:55;;;;;;;9.00;5.30;;;;;;;30.23;85.96;100476.33;107998;1290;21992;-81
2023/08/26 05:14:21;;;;;;;14.10;5.80;;;;;;;30.32;85.49;100483.04;107967;1290;22059;-80
2023/08/26 05:16:46;;;;;;;7.80;5.60;;;;;;;30.40;85.80;100486.50;107926;1286;22095;-59
2023/08/26 05:19:12;;;;;;;8.50;5.50;;;;;;;30.49;86.00;100490.57;107962;1281;22024;-82
2023/08/26 05:21:37;;;;;;;9.10;5.50;;;;;;;30.58;86.58;100491.10;107933;1290;22002;-59
2023/08/26 05:24:03;;;;;;;9.70;5.80;;;;;;;30.68;86.03;100489.66;108030;1281;22001;-81
2023/08/26 05:26:29;;;;;;;6.70;5.50;;;;;;;30.78;85.86;100493.05;107975;1290;22752;-79
2023/08/26 05:28:55;;;;;;;7.20;5.60;;;;;;;30.89;85.40;100486.78;108023;1290;21998;-59
2023/08/26 05:31:20;;;;;;;6.80;5.70;;;;;;;30.97;85.65;100481.73;107985;1290;21999;-59
2023/08/26 05:33:46;;;;;;;6.80;5.40;;;;;;;31.02;84.60;100475.73;107975;1290;22013;-59
2023/08/26 05:36:12;;;;;;;10.40;5.60;;;;;;;31.06;85.01;100472.84;108023;1283;22003;-80
2023/08/26 05:38:37;;;;;;;7.20;4.70;;;;;;;31.14;85.01;100467.89;107984;1288;24086;-80
2023/08/26 05:41:03;;;;;;;6.60;4.90;;;;;;;31.24;85.25;100467.45;107986;1284;23163;-78
2023/08/26 05:43:30;;;;;;;8.50;4.60;;;;;;;31.39;84.18;100472.63;107993;1290;21995;-78
2023/08/26 05:45:56;;;;;;;5.50;4.10;;;;;;;31.48;84.03;100479.98;107924;1290;22457;-61
2023/08/26 05:48:22;;;;;;;7.80;4.90;;;;;;;31.53;84.86;100483.23;107973;1280;21995;-60
2023/08/26 05:50:47;;;;;;;6.20;4.00;;;;;;;31.62;84.03;100484.20;107955;1290;21977;-79
2023/08/26 05:53:13;;;;;;;9.20;4.20;;;;;;;31.76;83.85;100486.42;107919;1289;21989;-79
2023/08/26 05:55:42;;;;;;;6.60;3.70;;;;;;;31.85;84.20;100487.55;107939;1289;22002;-78
2023/08/26 05:58:07;;;;;;;9.40;4.50;;;;;;;31.92;83.01;100487.04;107984;1284;21994;-80
2023/08/26 06:00:34;;;;;;;6.30;4.30;;;;;;;32.00;82.21;100486.42;107961;1290;22001;-77
2023/08/26 06:03:00;;;;;;;8.80;4.00;;;;;;;32.07;81.88;100489.64;107928;1290;22474;-60
2023/08/26 06:05:25;;;;;;;7.00;3.90;;;;;;;32.16;81.89;100487.89;107917;1290;21996;-70
2023/08/26 06:07:51;;;;;;;9.00;4.60;;;;;;;32.25;81.38;100490.39;107944;1290;21995;-60
2023/08/26 06:10:18;;;;;;;7.00;4.40;;;;;;;32.35;81.37;100487.38;108018;1290;21993;-79
2023/08/26 06:12:44;;;;;;;6.40;3.90;;;;;;;32.46;81.15;100485.16;107943;1290;22011;-78
2023/08/26 06:15:10;;;;;;;7.70;3.90;;;;;;;32.57;81.14;100483.15;107985;1290;21956;-61
2023/08/26 06:17:35;;;;;;;7.30;4.20;;;;;;;32.66;80.82;100486.38;107981;1290;22000;-59
2023/08/26 06:20:03;;;;;;;6.40;3.80;;;;;;;32.73;80.30;100486.74;107963;1284;21994;-59
2023/08/26 06:22:29;;;;;;;8.20;4.10;;;;;;;32.83;79.82;100489.71;108043;1290;21990;-59
2023/08/26 06:24:55;;;;;;;5.70;3.90;;;;;;;32.93;79.85;100496.11;107989;1280;21964;-71
2023/08/26 06:27:20;;;;;;;6.40;3.60;;;;;;;33.03;79.42;100500.16;108016;1290;22009;-79
2023/08/26 06:29:53;;;;;;;6.70;4.10;;;;;;;33.12;78.96;100501.59;107794;1286;23764;-81
2023/08/26 06:32:20;;;;;;;9.50;4.30;;;;;;;33.29;79.75;100508.36;107974;1289;21990;-60
2023/08/26 06:34:46;;;;;;;7.80;3.80;;;;;;;33.49;78.87;100510.06;107940;1282;22049;-80
2023/08/26 06:37:11;;;;;;;6.40;3.40;;;;;;;33.63;76.70;100512.73;107967;1290;24428;-59
2023/08/26 06:39:37;;;;;;;6.80;3.90;;;;;;;33.71;74.05;100515.48;107945;1284;21990;-79
2023/08/26 06:42:02;;;;;;;6.60;3.30;;;;;;;33.73;72.83;100512.71;108081;1288;21990;-59
2023/08/26 06:44:28;;;;;;;6.40;3.40;;;;;;;33.73;72.26;100513.48;107972;1287;22005;-80
2023/08/26 06:46:54;;;;;;;4.70;3.20;;;;;;;33.72;71.14;100517.28;107962;1283;22042;-59
2023/08/26 06:49:19;;;;;;;5.70;3.00;;;;;;;33.71;70.49;100519.55;107941;1284;21991;-80
2023/08/26 06:51:45;;;;;;;4.20;3.00;;;;;;;33.66;69.00;100521.36;107976;1284;21994;-59
2023/08/26 06:54:10;;;;;;;5.30;3.30;;;;;;;33.61;69.54;100525.98;108011;1284;21953;-59
2023/08/26 06:56:36;;;;;;;5.00;3.00;;;;;;;33.62;69.32;100525.71;107949;1281;21991;-81
2023/08/26 06:59:02;;;;;;;6.20;3.60;;;;;;;33.63;69.43;100521.28;107947;1290;23392;-59
2023/08/26 07:01:28;;;;;;;5.70;3.10;;;;;;;33.68;69.41;100522.05;107914;1288;22022;-59
2023/08/26 07:04:02;;;;;;;9.00;3.60;;;;;;;33.71;68.35;100521.58;107794;1286;21999;-61
2023/08/26 07:06:28;;;;;;;8.50;3.70;;;;;;;33.68;66.48;100519.08;107955;1290;23719;-78
2023/08/26 07:08:55;;;;;;;10.50;3.20;;;;;;;33.62;65.36;100517.39;107985;1290;23161;-62
2023/08/26 07:11:21;;;;;;;8.60;3.40;;;;;;;33.59;65.91;100518.95;108013;1279;21999;-79
2023/08/26 07:13:46;;;;;;;7.10;3.20;;;;;;;33.57;66.59;100519.98;107974;1290;21992;-80
2023/08/26 07:16:12;;;;;;;8.90;4.10;;;;;;;33.55;66.25;100522.33;107958;1290;22047;-79
2023/08/26 07:18:38;;;;;;;8.30;3.30;;;;;;;33.57;66.41;100524.48;108047;1290;21999;-79
2023/08/26 07:21:03;;;;;;;5.50;3.40;;;;;;;33.61;65.72;100519.64;107965;1287;22027;-60
2023/08/26 07:23:29;;;;;;;6.50;3.20;;;;;;;33.69;64.94;100523.17;107816;1290;21992;-60
2023/08/26 07:25:54;;;;;;;5.40;2.90;;;;;;;33.78;64.73;100517.08;107955;1287;21999;-60
2023/08/26 07:28:20;;;;;;;6.40;3.00;;;;;;;33.86;62.72;100514.81;107964;1290;21980;-78
2023/08/26 07:30:46;;;;;;;4.40;2.80;;;;;;;33.92;62.30;100509.55;107839;1286;21993;-78
2023/08/26 07:33:11;;;;;;;6.10;3.10;;;;;;;33.98;62.76;100505.58;108011;1287;24330;-60
2023/08/26 07:35:37;;;;;;;7.50;3.40;;;;;;;33.97;62.57;100506.20;107962;1285;21992;-78
2023/08/26 07:38:03;;;;;;;10.60;3.10;;;;;;;33.97;61.39;100505.67;107960;1289;21992;-77
2023/08/26 07:40:29;;;;;;;5.70;3.20;;;;;;;33.91;59.52;100504.57;108005;1288;21990;-60
2023/08/26 07:42:55;;;;;;;6.10;3.40;;;;;;;33.81;60.01;100504.17;108007;1289;21990;-60
2023/08/26 07:45:21;;;;;;;4.50;2.80;;;;;;;33.72;59.34;100510.47;107991;1287;21994;-62
2023/08/26 07:47:47;;;;;;;6.80;2.80;;;;;;;33.63;57.58;100510.34;108009;1289;21989;-60
2023/08/26 07:50:12;;;;;;;4.80;3.20;;;;;;;33.57;57.01;100507.02;107990;1284;21999;-60
2023/08/26 07:52:38;;;;;;;9.70;3.20;;;;;;;33.53;56.39;100509.67;108009;1281;21988;-60
2023/08/26 07:55:05;;;;;;;9.70;3.30;;;;;;;33.49;55.90;100511.46;108005;1284;21988;-60
2023/08/26 07:57:30;;;;;;;7.90;3.00;;;;;;;33.43;54.27;100514.30;108089;1283;22469;-60
2023/08/26 07:59:56;;;;;;;6.30;3.30;;;;;;;33.34;52.63;100512.95;108010;1289;21980;-60
2023/08/26 08:02:22;;;;;;;7.20;3.10;;;;;;;33.26;51.93;100509.77;108000;1287;22001;-60
2023/08/26 08:04:47;;;;;;;7.20;2.70;;;;;;;33.25;53.01;100510.61;107971;1289;22464;-60
2023/08/26 08:07:13;;;;;;;14.10;3.70;;;;;;;33.17;49.93;100509.24;108005;1281;21997;-60
2023/08/26 08:09:39;;;;;;;12.60;3.70;;;;;;;33.16;50.97;100509.16;107957;1280;22001;-60
2023/08/26 08:12:05;;;;;;;6.70;3.10;;;;;;;33.24;51.62;100506.50;107989;1287;22006;-77
2023/08/26 08:14:30;;;;;;;6.20;3.00;;;;;;;33.44;53.59;100502.05;107982;1287;23721;-78
2023/08/26 08:16:56;;;;;;;4.50;3.20;;;;;;;33.74;53.75;100500.05;108008;1284;21990;-78
2023/08/26 08:19:23;;;;;;;5.10;2.90;;;;;;;34.12;53.35;100499.02;108036;1288;23722;-79
2023/08/26 08:21:48;;;;;;;4.80;3.10;;;;;;;34.43;50.20;100504.55;107997;1284;21995;-61
2023/08/26 08:24:14;;;;;;;6.20;2.80;;;;;;;34.70;48.07;100504.65;107994;1287;21990;-78
2023/08/26 08:26:43;;;;;;;8.40;3.20;;;;;;;34.98;48.59;100500.01;107852;1289;21994;-80
2023/08/26 08:29:13;;;;;;;8.00;3.80;;;;;;;35.25;47.83;100493.48;107975;1289;21987;-60
2023/08/26 08:31:38;;;;;;;5.70;2.90;;;;;;;35.53;46.55;100491.42;108047;1289;22004;-79
2023/08/26 08:34:04;;;;;;;5.90;3.50;;;;;;;35.71;44.77;100493.71;107888;1289;23328;-80
2023/08/26 08:36:30;;;;;;;6.00;3.30;;;;;;;35.89;45.29;100489.08;107933;1289;23074;-78
2023/08/26 08:38:59;;;;;;;7.20;3.00;;;;;;;36.05;44.45;100486.84;107849;1277;23777;-60
2023/08/26 08:41:24;;;;;;;4.60;2.90;;;;;;;36.23;45.45;100487.15;108050;1288;21996;-60
2023/08/26 08:43:52;;;;;;;6.60;3.20;;;;;;;36.45;47.10;100482.75;107927;1280;21992;-79
2023/08/26 08:46:17;;;;;;;4.40;3.00;;;;;;;36.65;46.59;100485.13;107856;1289;22060;-79
2023/08/26 08:48:43;;;;;;;4.10;3.30;;;;;;;36.79;46.20;100485.77;108060;1289;23331;-60
2023/08/26 08:51:10;;;;;;;9.30;4.80;;;;;;;36.94;46.75;100480.90;108004;1289;21998;-60
2023/08/26 08:53:36;;;;;;;6.40;3.70;;;;;;;37.10;46.69;100480.02;107833;1289;21992;-60
2023/08/26 08:56:01;;;;;;;5.70;3.50;;;;;;;37.24;46.50;100476.45;108006;1289;21995;-60
2023/08/26 08:58:27;;;;;;;6.20;3.20;;;;;;;37.36;47.88;100477.09;108012;1287;21995;-60
2023/08/26 09:00:53;;;;;;;7.60;3.60;;;;;;;37.54;47.20;100480.99;107904;1289;22030;-81
2023/08/26 09:03:18;;;;;;;7.90;3.70;;;;;;;37.71;47.31;100480.23;107812;1289;22002;-60
2023/08/26 09:05:44;;;;;;;5.00;3.40;;;;;;;37.88;47.57;100475.94;107876;1290;22161;-77
2023/08/26 09:08:10;;;;;;;4.30;3.40;;;;;;;37.94;45.60;100474.62;107895;1289;24328;-60
2023/08/26 09:10:35;;;;;;;5.20;3.10;;;;;;;37.98;45.56;100475.41;107876;1289;21990;-60
2023/08/26 09:13:03;;;;;;;7.90;3.50;;;;;;;38.02;45.96;100473.48;107893;1289;21992;-60
2023/08/26 09:15:28;;;;;;;5.70;3.10;;;;;;;38.05;45.91;100470.27;108054;1287;22920;-61
2023/08/26 09:18:00;;;;;;;6.60;3.50;;;;;;;38.04;45.19;100471.70;109317;1289;21912;-61
2023/08/26 09:20:26;;;;;;;6.10;3.20;;;;;;;38.00;44.73;100473.17;109801;1281;23657;-61
2023/08/26 09:23:02;;;;;;;6.00;3.20;;;;;;;38.06;45.81;100470.48;108026;1280;21990;-61
2023/08/26 09:25:30;;;;;;;5.70;3.30;;;;;;;38.18;46.32;100468.77;107947;1283;22005;-60
2023/08/26 09:27:56;;;;;;;7.70;3.20;;;;;;;38.32;45.77;100475.42;107782;1289;21981;-79
2023/08/26 09:30:21;;;;;;;5.50;3.30;;;;;;;38.48;45.29;100476.32;107889;1283;21990;-76
2023/08/26 09:32:49;;;;;;;5.10;3.50;;;;;;;38.66;44.29;100473.44;107930;1277;22738;-61
2023/08/26 09:35:16;;;;;;;5.70;3.20;;;;;;;38.82;43.38;100473.70;107904;1286;22002;-77
2023/08/26 09:37:46;;;;;;;5.90;3.40;;;;;;;38.89;42.92;100473.53;107728;1289;21995;-78
2023/08/26 09:40:13;;;;;;;6.90;3.60;;;;;;;38.91;42.66;100466.90;107898;1289;23743;-79
2023/08/26 09:42:39;;;;;;;7.50;3.50;;;;;;;38.96;41.64;100469.15;107894;1288;23682;-61
2023/08/26 09:45:23;;;;;;;5.40;3.00;;;;;;;39.02;42.57;100471.15;107962;1287;22003;-61
2023/08/26 09:47:50;;;;;;;8.00;3.50;;;;;;;39.09;42.60;100469.17;107979;1289;22263;-81
2023/08/26 09:50:17;;;;;;;7.10;3.60;;;;;;;39.13;41.90;100470.01;107810;1289;24336;-76
2023/08/26 09:52:47;;;;;;;5.00;3.60;;;;;;;39.11;41.65;100465.30;107832;1289;22001;-77
2023/08/26 09:55:12;;;;;;;;;;;;;;;39.09;40.35;100464.32;107823;1289;23644;-61
2023/08/26 09:57:39;;;;;;;6.60;3.30;;;;;;;39.16;41.27;100467.22;107934;1289;22035;-77
2023/08/26 10:00:08;;;;;;;4.10;3.10;;;;;;;39.20;39.79;100468.00;107911;1283;23725;-61
2023/08/26 10:02:34;;;;;;;5.60;3.00;;;;;;;39.20;39.62;100466.00;107862;1286;22002;-77
2023/08/26 10:05:01;;;;;;;4.70;2.70;;;;;;;39.21;40.60;100465.80;107774;1289;23651;-75
2023/08/26 10:07:27;;;;;;;4.70;3.40;;;;;;;39.24;40.60;100468.70;107885;1289;22743;-76
2023/08/26 10:10:01;;;;;;;5.90;2.80;;;;;;;39.38;40.99;100470.23;107878;1288;23656;-69
2023/08/26 10:12:39;;;;;;;4.80;3.10;;;;;;;39.53;40.31;100469.52;108053;1287;22106;-77
2023/08/26 10:15:07;;;;;;;4.70;3.30;;;;;;;39.58;38.77;100474.56;107984;1281;22009;-77
2023/08/26 10:17:33;;;;;;;6.60;3.30;;;;;;;39.59;38.80;100476.05;107984;1286;21998;-61
2023/08/26 10:19:58;;;;;;;6.10;3.10;;;;;;;39.66;38.92;100470.51;107770;1287;22002;-77
2023/08/26 10:22:24;;;;;;;5.50;3.10;;;;;;;39.80;40.00;100473.56;107966;1289;24330;-61
2023/08/26 10:24:50;;;;;;;5.60;3.10;;;;;;;39.90;39.32;100475.95;107880;1289;22002;-60
2023/08/26 10:27:16;;;;;;;5.30;3.20;;;;;;;39.92;38.71;100473.42;107996;1289;22002;-68
2023/08/26 10:29:41;;;;;;;9.90;3.30;;;;;;;40.04;39.81;100469.93;107796;1289;21994;-62
2023/08/26 10:32:18;;;;;;;5.20;3.10;;;;;;;40.16;38.43;100472.40;108059;1284;22011;-61
2023/08/26 10:34:56;;;;;;;6.80;3.50;;;;;;;40.17;37.05;100470.39;107970;1287;22032;-61
2023/08/26 10:37:25;;;;;;;9.00;3.10;;;;;;;40.23;38.51;100473.88;107936;1280;21991;-84
2023/08/26 10:39:51;;;;;;;93.30;74.40;;;;;;;40.28;38.36;100475.84;107820;1289;23071;-80
2023/08/26 10:42:18;;;;;;;9.60;6.60;;;;;;;40.30;37.19;100478.67;107939;1289;21967;-62
2023/08/26 10:44:50;;;;;;;5.10;3.60;;;;;;;40.33;37.51;100477.57;108046;1289;22013;-76
2023/08/26 10:47:36;;;;;;;5.80;3.40;;;;;;;40.39;38.16;100475.71;108061;1284;22993;-60
2023/08/26 10:50:14;;;;;;;5.20;3.10;;;;;;;40.34;37.29;100476.95;107889;1288;21995;-76
2023/08/26 10:52:41;;;;;;;4.20;2.90;;;;;;;40.29;38.54;100474.28;107854;1289;21992;-76
2023/08/26 10:55:25;;;;;;;6.30;3.30;;;;;;;40.31;37.95;100468.71;107957;1287;21984;-61
2023/08/26 10:58:08;;;;;;;5.10;2.70;;;;;;;40.29;38.02;100468.26;107940;1286;21995;-76
2023/08/26 11:00:34;;;;;;;5.20;2.90;;;;;;;40.34;38.46;100463.15;107888;1282;24380;-61
2023/08/26 11:03:03;;;;;;;3.30;2.90;;;;;;;40.41;38.65;100465.22;107888;1289;22003;-61
2023/08/26 11:05:29;;;;;;;10.30;3.30;;;;;;;40.42;38.08;100460.88;107976;1283;22002;-61
2023/08/26 11:08:01;;;;;;;4.40;2.50;;;;;;;40.41;38.45;100456.31;107938;1289;22002;-77
2023/08/26 11:10:28;;;;;;;4.40;2.80;;;;;;;40.49;38.06;100452.19;107728;1288;22165;-76
2023/08/26 11:12:53;;;;;;;4.70;2.90;;;;;;;40.43;35.87;100453.01;107970;1289;23726;-61
2023/08/26 11:15:19;;;;;;;6.00;2.50;;;;;;;40.31;36.72;100451.41;107958;1287;23384;-60